Bristol, United Kingdom
Current Conditions -  °F | °C
As of 8:50 AM on Monday 20 Oct 2014 (Local Time) from EGGD Reporting Station
Few Clouds Few Clouds  
Wind Chill: 52°   Ceiling: Unl
Heat Index: 52°   Visibility: 6mi
Dew Point: 50°   Wind: 10mph
Humidity: 94%   Direction: 220°SW
Pressure: 30.03"   Gusts: NA
Location:  51.46°N, 2.59°W
Report Text: EGGD 200750Z 22009KT 9999 FEW019 11/10 Q1017
Loading
Personal Weather Stations






























Interactive Weather Map
Tropical Storm Tracking
New forecast layout! Learn more

10-Day Weather Forecast

Advertisements
Track Severe Weather on mobile